createdAt,value
2023-11-21T00:00:44.064Z,6.47
2023-11-21T00:03:46.348Z,5.75
2023-11-21T00:06:48.647Z,6.30
2023-11-21T00:09:50.894Z,5.97
2023-11-21T00:12:56.418Z,6.37
2023-11-21T00:15:59.107Z,5.50
2023-11-21T00:19:01.420Z,6.55
2023-11-21T00:22:03.689Z,5.25
2023-11-21T00:25:06.145Z,6.65
2023-11-21T00:28:08.405Z,7.00
2023-11-21T00:31:10.602Z,6.80
2023-11-21T00:34:13.451Z,5.90
2023-11-21T00:37:15.812Z,5.57
2023-11-21T00:40:22.417Z,5.68
2023-11-21T00:43:25.610Z,6.03
2023-11-21T00:46:31.073Z,6.37
2023-11-21T00:49:33.604Z,6.53
2023-11-21T00:52:35.964Z,6.45
2023-11-21T00:55:40.837Z,7.07
2023-11-21T00:58:50.935Z,5.60
2023-11-21T01:01:54.484Z,5.87
2023-11-21T01:04:56.708Z,5.55
2023-11-21T01:07:58.903Z,6.38
2023-11-21T01:11:01.191Z,6.80
2023-11-21T01:14:04.707Z,5.50
2023-11-21T01:17:07.671Z,6.27
2023-11-21T01:20:13.657Z,5.97
2023-11-21T01:23:16.219Z,6.60
2023-11-21T01:26:18.522Z,6.53
2023-11-21T01:29:21.206Z,6.27
2023-11-21T01:32:23.500Z,5.13
2023-11-21T01:35:25.794Z,6.30
2023-11-21T01:38:29.087Z,5.13
2023-11-21T01:41:31.961Z,6.05
2023-11-21T01:44:34.583Z,4.87
2023-11-21T01:47:37.621Z,5.30
2023-11-21T01:50:39.974Z,5.50
2023-11-21T01:53:42.566Z,5.15
2023-11-21T01:56:49.116Z,5.35
2023-11-21T01:59:52.620Z,6.07
2023-11-21T02:02:55.217Z,5.40
2023-11-21T02:05:57.599Z,5.03
2023-11-21T02:09:00.865Z,5.60
2023-11-21T02:12:03.627Z,4.28
2023-11-21T02:15:10.628Z,6.23
2023-11-21T02:18:13.248Z,6.43
2023-11-21T02:21:15.810Z,4.85
2023-11-21T02:24:22.776Z,4.63
2023-11-21T02:27:25.289Z,4.45
2023-11-21T02:30:29.435Z,5.30
2023-11-21T02:33:35.119Z,4.93
2023-11-21T02:36:38.300Z,5.57
2023-11-21T02:39:41.494Z,5.82
2023-11-21T02:42:43.815Z,6.13
2023-11-21T02:45:46.047Z,5.20
2023-11-21T02:48:48.698Z,5.43
2023-11-21T02:51:50.872Z,5.97
2023-11-21T02:54:53.178Z,5.07
2023-11-21T02:57:57.756Z,7.03
2023-11-21T03:01:00.193Z,6.60
2023-11-21T03:04:03.519Z,6.30
2023-11-21T03:07:06.646Z,7.65
2023-11-21T03:10:12.541Z,6.30
2023-11-21T03:13:14.966Z,7.43
2023-11-21T03:16:17.657Z,6.33
2023-11-21T03:19:20.046Z,7.07
2023-11-21T03:22:22.296Z,6.53
2023-11-21T03:25:25.638Z,6.97
2023-11-21T03:28:29.031Z,7.22
2023-11-21T03:31:31.516Z,6.00
2023-11-21T03:34:33.859Z,6.93
2023-11-21T03:37:36.835Z,6.90
2023-11-21T03:40:41.294Z,5.13
2023-11-21T03:43:43.779Z,6.47
2023-11-21T03:46:48.982Z,5.47
2023-11-21T03:49:51.345Z,7.37
2023-11-21T03:52:53.668Z,6.57
2023-11-21T03:55:55.930Z,6.03
2023-11-21T03:58:58.433Z,7.32
2023-11-21T04:02:00.635Z,7.50
2023-11-21T04:05:03.007Z,6.93
2023-11-21T04:08:05.473Z,5.80
2023-11-21T04:11:07.683Z,6.88
2023-11-21T04:14:10.234Z,7.05
2023-11-21T04:17:12.720Z,6.20
2023-11-21T04:20:15.860Z,6.03
2023-11-21T04:23:18.120Z,5.43
2023-11-21T04:26:20.325Z,6.63
2023-11-21T04:29:22.552Z,6.40
2023-11-21T04:32:24.731Z,7.83
2023-11-21T04:35:26.980Z,6.80
2023-11-21T04:38:29.169Z,8.68
2023-11-21T04:41:32.898Z,6.05
2023-11-21T04:44:35.342Z,6.68
2023-11-21T04:47:37.696Z,7.30
2023-11-21T04:50:39.950Z,6.83
2023-11-21T04:53:42.208Z,5.90
2023-11-21T04:56:44.476Z,6.95
2023-11-21T04:59:46.860Z,6.63
2023-11-21T05:02:49.278Z,6.73
2023-11-21T05:05:51.716Z,5.90
2023-11-21T05:08:54.205Z,7.70
2023-11-21T05:11:56.404Z,7.07
2023-11-21T05:14:59.530Z,7.32
2023-11-21T05:18:01.819Z,7.03
2023-11-21T05:21:04.089Z,7.33
2023-11-21T05:24:06.665Z,6.07
2023-11-21T05:27:10.821Z,7.05
2023-11-21T05:30:15.434Z,7.13
2023-11-21T05:33:17.991Z,6.83
2023-11-21T05:36:20.248Z,7.33
2023-11-21T05:39:22.924Z,7.18
2023-11-21T05:42:25.168Z,7.82
2023-11-21T05:45:27.532Z,7.68
2023-11-21T05:48:29.764Z,6.20
2023-11-21T05:51:32.043Z,5.53
2023-11-21T05:54:34.511Z,6.93
2023-11-21T05:57:40.294Z,7.90
2023-11-21T06:00:42.825Z,7.72
2023-11-21T06:03:45.189Z,8.10
2023-11-21T06:06:47.475Z,7.23
2023-11-21T06:09:51.349Z,7.72
2023-11-21T06:12:54.441Z,6.72
2023-11-21T06:15:57.026Z,6.13
2023-11-21T06:18:59.286Z,6.60
2023-11-21T06:22:02.628Z,7.50
2023-11-21T06:25:06.351Z,8.65
2023-11-21T06:28:08.663Z,6.97
2023-11-21T06:31:11.994Z,6.63
2023-11-21T06:34:14.942Z,6.77
2023-11-21T06:37:18.047Z,7.80
2023-11-21T06:40:24.124Z,6.63
2023-11-21T06:43:33.452Z,6.85
2023-11-21T06:46:44.241Z,6.13
2023-11-21T06:49:49.851Z,6.53
2023-11-21T06:52:52.703Z,7.17
2023-11-21T06:55:56.647Z,7.55
2023-11-21T06:58:59.360Z,7.45
2023-11-21T07:02:01.844Z,7.43
2023-11-21T07:05:04.808Z,5.97
2023-11-21T07:08:08.800Z,6.00
2023-11-21T07:11:11.241Z,5.60
2023-11-21T07:14:15.317Z,6.18
2023-11-21T07:17:18.959Z,5.63
2023-11-21T07:20:21.258Z,4.60
2023-11-21T07:23:23.998Z,6.07
2023-11-21T07:26:27.250Z,5.22
2023-11-21T07:29:31.149Z,6.65
2023-11-21T07:32:33.897Z,6.45
2023-11-21T07:35:37.854Z,5.33
2023-11-21T07:38:41.108Z,6.33
2023-11-21T07:41:49.939Z,5.60
2023-11-21T07:44:53.213Z,5.63
2023-11-21T07:47:56.498Z,4.78
2023-11-21T07:51:02.074Z,5.97
2023-11-21T07:54:06.841Z,6.17
2023-11-21T07:57:09.863Z,5.65
2023-11-21T08:00:13.565Z,5.10
2023-11-21T08:03:16.148Z,5.30
2023-11-21T08:06:18.572Z,5.93
2023-11-21T08:09:21.078Z,5.77
2023-11-21T08:12:23.547Z,5.63
2023-11-21T08:15:26.284Z,5.47
2023-11-21T08:18:28.823Z,5.43
2023-11-21T08:21:31.175Z,5.68
2023-11-21T08:24:33.498Z,5.73
2023-11-21T08:27:38.712Z,5.53
2023-11-21T08:30:43.158Z,7.32
2023-11-21T08:33:45.477Z,7.43
2023-11-21T08:36:47.809Z,6.97
2023-11-21T08:39:50.133Z,6.93
2023-11-21T08:42:53.781Z,5.75
2023-11-21T08:45:56.139Z,6.80
2023-11-21T08:48:59.088Z,7.60
2023-11-21T08:52:01.487Z,6.07
2023-11-21T08:55:09.063Z,7.23
2023-11-21T08:58:13.437Z,7.10
2023-11-21T09:01:17.396Z,7.40
2023-11-21T09:04:20.090Z,8.43
2023-11-21T09:07:22.485Z,7.80
2023-11-21T09:10:26.798Z,8.53
2023-11-21T09:13:29.289Z,7.53
2023-11-21T09:16:35.961Z,7.65
2023-11-21T09:19:38.845Z,6.70
2023-11-21T09:22:41.579Z,6.13
2023-11-21T09:25:47.382Z,6.67
2023-11-21T09:28:49.871Z,7.13
2023-11-21T09:31:56.072Z,5.65
2023-11-21T09:34:59.890Z,6.07
2023-11-21T09:38:06.831Z,6.55
2023-11-21T09:41:18.494Z,6.67
2023-11-21T09:44:24.915Z,6.80
2023-11-21T09:47:27.264Z,5.70
2023-11-21T09:50:29.783Z,8.32
2023-11-21T09:53:33.153Z,8.45
2023-11-21T09:56:36.619Z,10.23
2023-11-21T09:59:39.431Z,10.10
2023-11-21T10:02:42.163Z,12.73
2023-11-21T10:05:45.579Z,10.95
2023-11-21T10:08:53.752Z,10.77
2023-11-21T10:11:59.617Z,10.77
2023-11-21T10:15:03.950Z,11.05
2023-11-21T10:18:08.317Z,11.80
2023-11-21T10:21:10.772Z,12.32
2023-11-21T10:24:19.798Z,12.77
2023-11-21T10:27:26.115Z,11.00
2023-11-21T10:30:34.525Z,12.45
2023-11-21T10:33:36.932Z,10.88
2023-11-21T10:36:40.980Z,12.30
2023-11-21T10:39:45.435Z,11.07
2023-11-21T10:42:50.592Z,11.53
2023-11-21T10:45:58.923Z,12.35
2023-11-21T10:49:04.177Z,12.82
2023-11-21T10:52:10.302Z,12.07
2023-11-21T10:55:29.646Z,11.68
2023-11-21T10:58:51.740Z,9.77
2023-11-21T11:01:56.009Z,7.88
2023-11-21T11:05:01.829Z,6.30
2023-11-21T11:08:06.397Z,6.53
2023-11-21T11:11:12.901Z,7.53
2023-11-21T11:14:16.175Z,7.07
2023-11-21T11:17:21.872Z,7.40
2023-11-21T11:20:26.322Z,6.10
2023-11-21T11:23:36.213Z,5.40
2023-11-21T11:26:41.549Z,5.32
2023-11-21T11:29:57.398Z,5.53
2023-11-21T11:32:59.928Z,5.32
2023-11-21T11:36:09.119Z,5.50
2023-11-21T11:39:31.353Z,5.53
2023-11-21T11:42:33.725Z,5.20
2023-11-21T11:45:36.893Z,5.20
2023-11-21T11:48:40.975Z,5.28
2023-11-21T11:51:43.573Z,4.90
2023-11-21T11:54:55.433Z,4.85
2023-11-21T11:58:04.267Z,5.40
2023-11-21T12:01:13.101Z,4.67
2023-11-21T12:04:15.891Z,4.63
2023-11-21T12:07:18.765Z,4.45
2023-11-21T12:10:25.976Z,5.10
2023-11-21T12:13:29.964Z,4.60
2023-11-21T12:16:34.004Z,4.50
2023-11-21T12:19:38.140Z,4.18
2023-11-21T12:22:45.831Z,5.28
2023-11-21T12:25:49.929Z,4.75
2023-11-21T12:29:02.082Z,4.65
2023-11-21T12:32:06.144Z,4.37
2023-11-21T12:35:17.810Z,4.80
2023-11-21T12:38:20.994Z,4.45
2023-11-21T12:41:23.461Z,4.85
2023-11-21T12:44:26.131Z,5.43
2023-11-21T12:47:28.464Z,4.50
2023-11-21T12:50:35.024Z,4.88
2023-11-21T12:53:39.655Z,4.72
2023-11-21T12:56:42.177Z,5.15
2023-11-21T12:59:47.797Z,5.72
2023-11-21T13:02:58.418Z,4.97
2023-11-21T13:06:03.820Z,5.70
2023-11-21T13:09:06.637Z,5.47
2023-11-21T13:12:11.478Z,5.70
2023-11-21T13:15:19.494Z,5.95
2023-11-21T13:18:23.189Z,5.03
2023-11-21T13:21:25.627Z,5.43
2023-11-21T13:24:27.970Z,5.05
2023-11-21T13:27:31.252Z,5.78
2023-11-21T13:30:36.567Z,5.57
2023-11-21T13:33:40.174Z,5.07
2023-11-21T13:36:43.680Z,4.68
2023-11-21T13:39:52.366Z,5.07
2023-11-21T13:42:56.159Z,5.20
2023-11-21T13:46:05.130Z,5.38
2023-11-21T13:49:11.683Z,5.43
2023-11-21T13:52:17.665Z,5.45
2023-11-21T13:55:20.410Z,5.45
2023-11-21T13:58:41.215Z,5.78
2023-11-21T14:02:14.099Z,6.43
2023-11-21T14:05:22.526Z,6.17
2023-11-21T14:08:29.691Z,6.07
2023-11-21T14:11:36.208Z,6.43
2023-11-21T14:14:42.172Z,5.50
2023-11-21T14:17:44.443Z,5.95
2023-11-21T14:20:46.853Z,5.73
2023-11-21T14:23:49.559Z,6.18
2023-11-21T14:26:52.282Z,5.60
2023-11-21T14:29:54.620Z,6.15
2023-11-21T14:32:57.408Z,6.25
2023-11-21T14:36:00.140Z,5.50
2023-11-21T14:39:02.592Z,6.60
2023-11-21T14:42:05.781Z,7.47
2023-11-21T14:45:09.276Z,6.43
2023-11-21T14:48:17.913Z,6.85
2023-11-21T14:51:31.767Z,6.57
2023-11-21T14:54:47.003Z,6.65
2023-11-21T14:57:52.327Z,6.88
2023-11-21T15:00:59.209Z,6.15
2023-11-21T15:04:02.017Z,6.05
2023-11-21T15:07:05.471Z,7.10
2023-11-21T15:10:12.243Z,7.93
2023-11-21T15:13:16.283Z,8.63
2023-11-21T15:16:19.658Z,7.97
2023-11-21T15:19:27.290Z,8.77
2023-11-21T15:22:30.935Z,8.53
2023-11-21T15:25:33.584Z,8.02
2023-11-21T15:28:36.550Z,9.25
2023-11-21T15:31:40.103Z,6.82
2023-11-21T15:34:42.514Z,7.13
2023-11-21T15:37:46.280Z,7.30
2023-11-21T15:40:50.734Z,7.03
2023-11-21T15:43:53.033Z,7.13
2023-11-21T15:46:55.664Z,7.25
2023-11-21T15:49:57.960Z,6.33
2023-11-21T15:53:00.552Z,6.33
2023-11-21T15:56:05.418Z,6.85
2023-11-21T15:59:07.870Z,7.90
2023-11-21T16:02:11.863Z,7.28
2023-11-21T16:05:19.021Z,8.60
2023-11-21T16:08:21.479Z,8.43
2023-11-21T16:11:24.437Z,7.88
2023-11-21T16:14:30.797Z,9.13
2023-11-21T16:17:34.094Z,7.30
2023-11-21T16:20:36.605Z,9.07
2023-11-21T16:23:38.920Z,10.77
2023-11-21T16:26:44.557Z,9.07
2023-11-21T16:29:47.289Z,9.23
2023-11-21T16:32:49.604Z,9.80
2023-11-21T16:35:51.855Z,9.13
2023-11-21T16:38:55.130Z,8.63
2023-11-21T16:41:57.321Z,8.38
2023-11-21T16:44:59.546Z,8.35
2023-11-21T16:48:04.065Z,9.70
2023-11-21T16:51:06.298Z,9.47
2023-11-21T16:54:09.792Z,10.43
2023-11-21T16:57:13.213Z,8.98
2023-11-21T17:00:16.917Z,10.10
2023-11-21T17:03:21.509Z,8.70
2023-11-21T17:06:24.659Z,10.10
2023-11-21T17:09:26.944Z,10.23
2023-11-21T17:12:29.276Z,11.10
2023-11-21T17:15:31.526Z,11.02
2023-11-21T17:18:33.833Z,9.82
2023-11-21T17:21:37.437Z,11.03
2023-11-21T17:24:39.801Z,10.40
2023-11-21T17:27:42.130Z,10.40
2023-11-21T17:30:44.426Z,10.88
2023-11-21T17:33:47.460Z,10.52
2023-11-21T17:36:49.750Z,11.07
2023-11-21T17:39:52.053Z,12.20
2023-11-21T17:42:54.398Z,11.85
2023-11-21T17:45:57.498Z,11.48
2023-11-21T17:49:00.053Z,10.75
2023-11-21T17:52:02.256Z,11.10
2023-11-21T17:55:06.667Z,10.47
2023-11-21T17:58:10.451Z,10.20
2023-11-21T18:01:12.905Z,11.75
2023-11-21T18:04:15.409Z,10.82
2023-11-21T18:07:18.733Z,7.40
2023-11-21T18:10:21.140Z,8.23
2023-11-21T18:13:23.446Z,6.20
2023-11-21T18:16:25.829Z,6.90
2023-11-21T18:19:28.697Z,7.57
2023-11-21T18:22:30.974Z,6.83
2023-11-21T18:25:33.238Z,6.20
2023-11-21T18:28:37.363Z,7.78
2023-11-21T18:31:42.695Z,5.47
2023-11-21T18:34:47.116Z,6.28
2023-11-21T18:37:49.457Z,6.73
2023-11-21T18:40:52.467Z,6.33
2023-11-21T18:43:55.257Z,6.88
2023-11-21T18:46:58.200Z,6.28
2023-11-21T18:50:00.635Z,6.90
2023-11-21T18:53:03.226Z,5.97
2023-11-21T18:56:05.874Z,6.30
2023-11-21T18:59:11.344Z,5.80
2023-11-21T19:02:15.250Z,5.65
2023-11-21T19:05:18.113Z,6.15
2023-11-21T19:08:20.500Z,6.43
2023-11-21T19:11:23.284Z,7.30
2023-11-21T19:14:25.771Z,5.78
2023-11-21T19:17:28.416Z,5.97
2023-11-21T19:20:30.671Z,7.03
2023-11-21T19:23:32.956Z,7.33
2023-11-21T19:26:37.858Z,7.93
2023-11-21T19:29:40.431Z,8.57
2023-11-21T19:32:44.559Z,8.73
2023-11-21T19:35:47.092Z,7.78
2023-11-21T19:38:49.593Z,7.57
2023-11-21T19:41:52.075Z,8.00
2023-11-21T19:44:54.543Z,7.45
2023-11-21T19:47:57.111Z,6.97
2023-11-21T19:50:59.397Z,6.00
2023-11-21T19:54:02.286Z,7.70
2023-11-21T19:57:05.876Z,7.27
2023-11-21T20:00:12.548Z,7.03
2023-11-21T20:03:15.733Z,5.72
2023-11-21T20:06:18.296Z,6.68
2023-11-21T20:09:20.709Z,6.93
2023-11-21T20:12:22.914Z,7.00
2023-11-21T20:15:26.946Z,5.63
2023-11-21T20:18:31.833Z,5.20
2023-11-21T20:21:34.987Z,5.60
2023-11-21T20:24:37.235Z,5.27
2023-11-21T20:27:40.524Z,4.77
2023-11-21T20:30:42.764Z,5.97
2023-11-21T20:33:45.323Z,4.85
2023-11-21T20:36:48.955Z,5.55
2023-11-21T20:39:51.821Z,3.03
2023-11-21T20:42:55.455Z,5.83
2023-11-21T20:45:58.548Z,3.83
2023-11-21T20:49:01.287Z,3.80
2023-11-21T20:52:04.011Z,4.68
2023-11-21T20:55:06.763Z,5.00
2023-11-21T20:58:11.943Z,4.93
2023-11-21T21:01:15.182Z,4.07
2023-11-21T21:04:19.277Z,4.43
2023-11-21T21:07:21.975Z,3.95
2023-11-21T21:10:24.325Z,3.80
2023-11-21T21:13:26.593Z,4.37
2023-11-21T21:16:29.345Z,4.32
2023-11-21T21:19:33.828Z,3.60
2023-11-21T21:22:36.187Z,4.43
2023-11-21T21:25:38.808Z,3.67
2023-11-21T21:28:41.838Z,4.20
2023-11-21T21:31:44.120Z,3.92
2023-11-21T21:34:46.398Z,4.28
2023-11-21T21:37:48.645Z,4.30
2023-11-21T21:40:53.145Z,3.43
2023-11-21T21:43:55.631Z,4.43
2023-11-21T21:46:58.066Z,3.92
2023-11-21T21:50:00.527Z,6.18
2023-11-21T21:53:03.092Z,4.65
2023-11-21T21:56:05.483Z,5.07
2023-11-21T21:59:08.831Z,5.57
2023-11-21T22:02:11.348Z,4.53
2023-11-21T22:05:13.751Z,4.85
2023-11-21T22:08:16.044Z,4.55
2023-11-21T22:11:18.286Z,3.43
2023-11-21T22:14:20.704Z,5.23
2023-11-21T22:17:24.299Z,3.75
2023-11-21T22:20:26.693Z,4.25
2023-11-21T22:23:28.976Z,4.22
2023-11-21T22:26:31.286Z,5.20
2023-11-21T22:29:33.636Z,4.90
2023-11-21T22:32:35.876Z,4.78
2023-11-21T22:35:39.863Z,3.95
2023-11-21T22:38:42.762Z,5.82
2023-11-21T22:41:45.028Z,6.20
2023-11-21T22:44:47.370Z,4.63
2023-11-21T22:47:49.728Z,4.57
2023-11-21T22:50:52.111Z,4.90
2023-11-21T22:53:54.617Z,5.32
2023-11-21T22:56:56.926Z,5.80
2023-11-21T22:59:59.183Z,5.90
2023-11-21T23:03:01.775Z,5.30
2023-11-21T23:06:04.420Z,5.38
2023-11-21T23:09:06.616Z,5.82
2023-11-21T23:12:08.951Z,6.70
2023-11-21T23:15:11.241Z,5.90
2023-11-21T23:18:13.822Z,6.05
2023-11-21T23:21:16.243Z,5.55
2023-11-21T23:24:21.638Z,5.43
2023-11-21T23:27:24.071Z,6.23
2023-11-21T23:30:27.420Z,5.03
2023-11-21T23:33:31.996Z,6.13
2023-11-21T23:36:34.393Z,6.07
2023-11-21T23:39:37.570Z,5.82
2023-11-21T23:42:39.861Z,5.53
2023-11-21T23:45:42.282Z,5.50
2023-11-21T23:48:44.566Z,3.63
2023-11-21T23:51:47.255Z,4.80
2023-11-21T23:54:49.608Z,6.88
2023-11-21T23:57:51.877Z,4.30
